createdAt,value
2023-01-18T00:02:01.702Z,94683.81
2023-01-18T00:04:28.171Z,94673.75
2023-01-18T00:06:54.609Z,94674.47
2023-01-18T00:09:21.177Z,94673.53
2023-01-18T00:11:49.023Z,94666.22
2023-01-18T00:14:15.475Z,94661.63
2023-01-18T00:16:41.947Z,94663.63
2023-01-18T00:19:13.117Z,94660.78
2023-01-18T00:21:39.872Z,94655.78
2023-01-18T00:24:10.897Z,94658.78
2023-01-18T00:26:38.019Z,94655.91
2023-01-18T00:29:04.933Z,94645.81
2023-01-18T00:31:31.669Z,94632.34
2023-01-18T00:33:58.299Z,94640.59
2023-01-18T00:36:24.797Z,94648.31
2023-01-18T00:38:52.169Z,94645.81
2023-01-18T00:41:18.967Z,94648.91
2023-01-18T00:43:45.431Z,94637.75
2023-01-18T00:46:32.245Z,94649.25
2023-01-18T00:48:58.960Z,94655.59
2023-01-18T00:51:25.842Z,94670.28
2023-01-18T00:53:52.305Z,94690.72
2023-01-18T00:56:21.613Z,94698.97
2023-01-18T00:58:48.270Z,94700.06
2023-01-18T01:01:15.172Z,94717.53
2023-01-18T01:04:00.215Z,94727.09
2023-01-18T01:06:46.735Z,94741.97
2023-01-18T01:09:15.538Z,94743.44
2023-01-18T01:12:05.574Z,94760.13
2023-01-18T01:14:51.383Z,94765.78
2023-01-18T01:17:36.244Z,94763.25
2023-01-18T01:20:21.801Z,94773.41
2023-01-18T01:23:07.081Z,94770.22
2023-01-18T01:25:54.507Z,94779.28
2023-01-18T01:28:21.047Z,94781.28
2023-01-18T01:30:47.706Z,94779.75
2023-01-18T01:33:14.241Z,94778.22
2023-01-18T01:35:40.728Z,94788.53
2023-01-18T01:38:07.162Z,94787.41
2023-01-18T01:40:33.734Z,94774.81
2023-01-18T01:43:00.363Z,94778.47
2023-01-18T01:45:28.123Z,94780.03
2023-01-18T01:47:57.269Z,94779.44
2023-01-18T01:50:29.803Z,94773.66
2023-01-18T01:52:57.511Z,94763.94
2023-01-18T01:55:24.355Z,94756.25
2023-01-18T01:57:55.591Z,94752.59
2023-01-18T02:00:24.453Z,94758.75
2023-01-18T02:02:53.806Z,94744.06
2023-01-18T02:05:20.554Z,94749.66
2023-01-18T02:07:47.353Z,94751.56
2023-01-18T02:10:14.160Z,94741.13
2023-01-18T02:12:41.510Z,94754.72
2023-01-18T02:15:08.669Z,94762.19
2023-01-18T02:17:42.203Z,94761.81
2023-01-18T02:20:19.857Z,94768.28
2023-01-18T02:23:01.659Z,94760.44
2023-01-18T02:25:31.190Z,94757.78
2023-01-18T02:28:12.886Z,94747.16
2023-01-18T02:30:44.506Z,94734.75
2023-01-18T02:33:15.881Z,94732.06
2023-01-18T02:35:47.249Z,94727.44
2023-01-18T02:38:16.962Z,94731.72
2023-01-18T02:40:53.237Z,94743.97
2023-01-18T02:43:39.140Z,94721.19
2023-01-18T02:46:26.861Z,94725.31
2023-01-18T02:48:53.371Z,94738.72
2023-01-18T02:51:19.981Z,94745.75
2023-01-18T02:53:47.577Z,94746.94
2023-01-18T02:56:16.119Z,94755.44
2023-01-18T02:58:47.777Z,94764.44
2023-01-18T03:01:40.570Z,94756.22
2023-01-18T03:04:13.333Z,94743.63
2023-01-18T03:06:41.621Z,94742.56
2023-01-18T03:09:08.599Z,94743.50
2023-01-18T03:11:35.014Z,94752.13
2023-01-18T03:14:21.736Z,94737.50
2023-01-18T03:16:57.954Z,94738.69
2023-01-18T03:19:50.137Z,94735.69
2023-01-18T03:22:16.593Z,94734.53
2023-01-18T03:24:44.348Z,94735.53
2023-01-18T03:27:32.088Z,94740.16
2023-01-18T03:30:17.450Z,94749.91
2023-01-18T03:33:02.315Z,94764.13
2023-01-18T03:35:29.895Z,94770.22
2023-01-18T03:37:58.414Z,94766.84
2023-01-18T03:40:27.976Z,94760.66
2023-01-18T03:42:57.592Z,94758.28
2023-01-18T03:45:28.110Z,94760.38
2023-01-18T03:47:54.745Z,94751.66
2023-01-18T03:50:27.824Z,94759.44
2023-01-18T03:52:57.531Z,94764.81
2023-01-18T03:55:28.396Z,94771.50
2023-01-18T03:57:58.577Z,94770.31
2023-01-18T04:00:25.605Z,94770.53
2023-01-18T04:02:52.596Z,94760.75
2023-01-18T04:05:19.128Z,94755.66
2023-01-18T04:07:45.647Z,94757.66
2023-01-18T04:10:12.260Z,94766.72
2023-01-18T04:12:38.827Z,94778.03
2023-01-18T04:15:05.701Z,94783.25
2023-01-18T04:17:32.170Z,94784.78
2023-01-18T04:19:58.737Z,94782.75
2023-01-18T04:22:25.336Z,94785.78
2023-01-18T04:24:51.787Z,94788.97
2023-01-18T04:27:18.356Z,94783.59
2023-01-18T04:29:44.815Z,94779.34
2023-01-18T04:32:11.282Z,94778.03
2023-01-18T04:34:37.741Z,94763.38
2023-01-18T04:37:04.344Z,94772.63
2023-01-18T04:39:30.865Z,94763.09
2023-01-18T04:41:57.425Z,94761.97
2023-01-18T04:44:24.194Z,94775.03
2023-01-18T04:46:51.127Z,94787.72
2023-01-18T04:49:17.656Z,94774.44
2023-01-18T04:51:44.975Z,94779.09
2023-01-18T04:54:11.954Z,94785.03
2023-01-18T04:56:39.112Z,94797.22
2023-01-18T04:59:05.734Z,94812.09
2023-01-18T05:01:33.375Z,94824.91
2023-01-18T05:03:59.881Z,94837.03
2023-01-18T05:06:26.368Z,94851.53
2023-01-18T05:08:53.055Z,94857.63
2023-01-18T05:11:20.837Z,94855.47
2023-01-18T05:13:47.327Z,94845.78
2023-01-18T05:16:15.087Z,94840.41
2023-01-18T05:18:41.722Z,94827.44
2023-01-18T05:21:08.306Z,94851.06
2023-01-18T05:23:34.779Z,94856.38
2023-01-18T05:26:01.731Z,94872.16
2023-01-18T05:28:28.204Z,94887.78
2023-01-18T05:30:55.045Z,94885.63
2023-01-18T05:33:22.281Z,94891.59
2023-01-18T05:35:48.729Z,94897.22
2023-01-18T05:38:15.343Z,94899.19
2023-01-18T05:40:42.833Z,94905.09
2023-01-18T05:43:09.259Z,94906.53
2023-01-18T05:45:35.724Z,94910.34
2023-01-18T05:48:02.257Z,94912.81
2023-01-18T05:50:28.696Z,94907.09
2023-01-18T05:52:57.733Z,94903.78
2023-01-18T05:55:24.836Z,94903.97
2023-01-18T05:57:51.334Z,94891.22
2023-01-18T06:00:18.024Z,94908.69
2023-01-18T06:02:44.559Z,94917.34
2023-01-18T06:05:12.067Z,94925.50
2023-01-18T06:07:38.502Z,94928.16
2023-01-18T06:10:05.174Z,94920.28
2023-01-18T06:12:31.617Z,94932.09
2023-01-18T06:14:58.918Z,94932.94
2023-01-18T06:17:25.524Z,94944.72
2023-01-18T06:19:52.013Z,94938.38
2023-01-18T06:22:18.491Z,94932.75
2023-01-18T06:24:44.923Z,94939.09
2023-01-18T06:27:11.364Z,94945.72
2023-01-18T06:29:37.854Z,94947.06
2023-01-18T06:32:04.577Z,94957.53
2023-01-18T06:34:31.083Z,94958.69
2023-01-18T06:36:57.543Z,94952.53
2023-01-18T06:39:24.059Z,94952.69
2023-01-18T06:41:50.759Z,94964.97
2023-01-18T06:44:17.445Z,94973.25
2023-01-18T06:46:44.400Z,94982.91
2023-01-18T06:49:11.382Z,94990.88
2023-01-18T06:51:38.601Z,94991.19
2023-01-18T06:54:05.111Z,94989.19
2023-01-18T06:56:31.605Z,94999.47
2023-01-18T06:58:58.898Z,94997.19
2023-01-18T07:01:26.077Z,95004.47
2023-01-18T07:03:52.818Z,95007.06
2023-01-18T07:06:19.839Z,95010.72
2023-01-18T07:08:46.371Z,95012.72
2023-01-18T07:11:13.051Z,95014.94
2023-01-18T07:13:40.301Z,95024.03
2023-01-18T07:16:07.824Z,95028.22
2023-01-18T07:18:34.539Z,95049.97
2023-01-18T07:21:02.547Z,95041.66
2023-01-18T07:23:29.701Z,95040.78
2023-01-18T07:26:03.684Z,95054.91
2023-01-18T07:28:30.725Z,95059.84
2023-01-18T07:30:57.170Z,95054.22
2023-01-18T07:33:23.627Z,95044.25
2023-01-18T07:35:53.715Z,95037.84
2023-01-18T07:38:20.841Z,95026.13
2023-01-18T07:40:47.982Z,95027.50
2023-01-18T07:43:15.553Z,95038.41
2023-01-18T07:45:43.035Z,95052.00
2023-01-18T07:48:10.410Z,95057.38
2023-01-18T07:50:36.919Z,95065.16
2023-01-18T07:53:08.576Z,95056.94
2023-01-18T07:55:35.250Z,95054.41
2023-01-18T07:58:02.006Z,95057.63
2023-01-18T08:00:28.583Z,95055.66
2023-01-18T08:02:58.173Z,95059.03
2023-01-18T08:05:26.831Z,95069.78
2023-01-18T08:07:53.781Z,95076.81
2023-01-18T08:10:20.864Z,95079.16
2023-01-18T08:12:47.664Z,95087.88
2023-01-18T08:15:14.395Z,95109.19
2023-01-18T08:17:40.841Z,95101.06
2023-01-18T08:20:09.416Z,95103.03
2023-01-18T08:22:36.464Z,95107.34
2023-01-18T08:25:03.321Z,95111.44
2023-01-18T08:27:29.856Z,95113.34
2023-01-18T08:29:57.159Z,95121.34
2023-01-18T08:32:23.737Z,95122.59
2023-01-18T08:34:50.531Z,95120.19
2023-01-18T08:37:17.289Z,95122.66
2023-01-18T08:39:43.772Z,95136.22
2023-01-18T08:42:11.365Z,95150.31
2023-01-18T08:44:38.065Z,95153.00
2023-01-18T08:47:04.528Z,95172.38
2023-01-18T08:49:32.719Z,95173.06
2023-01-18T08:51:59.265Z,95174.72
2023-01-18T08:54:26.031Z,95167.13
2023-01-18T08:56:52.486Z,95177.75
2023-01-18T08:59:20.051Z,95183.44
2023-01-18T09:01:46.689Z,95191.31
2023-01-18T09:04:13.769Z,95208.66
2023-01-18T09:06:40.220Z,95237.63
2023-01-18T09:09:07.315Z,95240.44
2023-01-18T09:11:33.754Z,95223.00
2023-01-18T09:14:02.141Z,95211.41
2023-01-18T09:16:29.870Z,95226.66
2023-01-18T09:18:56.662Z,95241.81
2023-01-18T09:21:23.700Z,95255.78
2023-01-18T09:23:50.799Z,95254.25
2023-01-18T09:26:18.283Z,95261.31
2023-01-18T09:28:45.172Z,95266.47
2023-01-18T09:31:12.438Z,95282.78
2023-01-18T09:33:39.749Z,95289.22
2023-01-18T09:36:07.793Z,95281.81
2023-01-18T09:38:35.113Z,95288.09
2023-01-18T09:41:02.401Z,95297.56
2023-01-18T09:43:39.640Z,95295.41
2023-01-18T09:46:14.069Z,95295.47
2023-01-18T09:48:42.726Z,95294.25
2023-01-18T09:51:22.673Z,95302.53
2023-01-18T09:54:07.720Z,95296.44
2023-01-18T09:56:54.425Z,95294.19
2023-01-18T09:59:25.306Z,95291.69
2023-01-18T10:01:54.365Z,95299.19
2023-01-18T10:04:30.800Z,95294.81
2023-01-18T10:07:00.472Z,95295.84
2023-01-18T10:09:32.393Z,95292.13
2023-01-18T10:12:19.784Z,95293.34
2023-01-18T10:14:46.505Z,95292.03
2023-01-18T10:17:14.628Z,95301.44
2023-01-18T10:19:41.357Z,95303.38
2023-01-18T10:22:26.433Z,95309.84
2023-01-18T10:24:53.184Z,95315.31
2023-01-18T10:27:35.861Z,95328.22
2023-01-18T10:30:20.771Z,95321.81
2023-01-18T10:32:58.401Z,95325.16
2023-01-18T10:35:31.105Z,95331.19
2023-01-18T10:38:00.830Z,95334.88
2023-01-18T10:40:27.722Z,95350.84
2023-01-18T10:42:57.276Z,95353.97
2023-01-18T10:45:25.788Z,95354.06
2023-01-18T10:47:53.735Z,95354.44
2023-01-18T10:50:22.548Z,95354.00
2023-01-18T10:52:49.675Z,95353.47
2023-01-18T10:55:17.296Z,95355.50
2023-01-18T10:57:43.752Z,95356.72
2023-01-18T11:00:22.627Z,95354.38
2023-01-18T11:02:50.793Z,95368.75
2023-01-18T11:05:20.354Z,95383.38
2023-01-18T11:07:46.954Z,95392.44
2023-01-18T11:10:24.240Z,95389.06
2023-01-18T11:12:52.266Z,95379.44
2023-01-18T11:15:19.058Z,95383.44
2023-01-18T11:17:58.575Z,95382.50
2023-01-18T11:20:30.548Z,95385.13
2023-01-18T11:22:59.273Z,95385.63
2023-01-18T11:25:48.979Z,95391.94
2023-01-18T11:28:23.266Z,95392.19
2023-01-18T11:30:54.278Z,95398.06
2023-01-18T11:33:21.830Z,95400.88
2023-01-18T11:35:53.444Z,95404.53
2023-01-18T11:38:20.156Z,95412.25
2023-01-18T11:40:46.706Z,95411.28
2023-01-18T11:43:13.155Z,95402.75
2023-01-18T11:45:53.424Z,95404.94
2023-01-18T11:48:35.827Z,95405.28
2023-01-18T11:51:17.095Z,95402.88
2023-01-18T11:54:02.735Z,95403.88
2023-01-18T11:56:29.234Z,95400.81
2023-01-18T11:58:56.178Z,95409.25
2023-01-18T12:01:22.844Z,95424.50
2023-01-18T12:03:49.386Z,95435.28
2023-01-18T12:06:28.277Z,95432.69
2023-01-18T12:09:09.638Z,95444.75
2023-01-18T12:12:06.489Z,95450.88
2023-01-18T12:14:49.138Z,95445.88
2023-01-18T12:17:25.347Z,95444.41
2023-01-18T12:19:58.535Z,95444.34
2023-01-18T12:22:40.324Z,95445.00
2023-01-18T12:25:06.771Z,95440.44
2023-01-18T12:27:51.499Z,95442.84
2023-01-18T12:30:30.140Z,95439.84
2023-01-18T12:33:05.200Z,95435.81
2023-01-18T12:35:50.648Z,95440.19
2023-01-18T12:38:23.275Z,95438.69
2023-01-18T12:41:04.878Z,95444.44
2023-01-18T12:43:37.820Z,95437.22
2023-01-18T12:46:09.171Z,95420.34
2023-01-18T12:48:43.479Z,95410.09
2023-01-18T12:51:12.710Z,95402.47
2023-01-18T12:53:59.439Z,95404.66
2023-01-18T12:56:30.261Z,95415.00
2023-01-18T12:58:58.469Z,95409.06
2023-01-18T13:01:27.311Z,95407.53
2023-01-18T13:03:57.556Z,95399.78
2023-01-18T13:06:25.297Z,95399.69
2023-01-18T13:08:55.651Z,95398.38
2023-01-18T13:11:24.910Z,95407.50
2023-01-18T13:13:55.174Z,95415.00
2023-01-18T13:16:21.663Z,95425.47
2023-01-18T13:19:03.784Z,95441.28
2023-01-18T13:21:41.867Z,95448.31
2023-01-18T13:24:17.880Z,95462.31
2023-01-18T13:26:44.395Z,95469.06
2023-01-18T13:29:13.971Z,95470.91
2023-01-18T13:31:40.516Z,95481.25
2023-01-18T13:34:19.823Z,95496.22
2023-01-18T13:36:46.968Z,95500.03
2023-01-18T13:39:15.293Z,95512.97
2023-01-18T13:42:01.691Z,95518.00
2023-01-18T13:44:32.369Z,95529.25
2023-01-18T13:46:59.724Z,95536.31
2023-01-18T13:49:45.744Z,95545.19
2023-01-18T13:52:31.457Z,95565.28
2023-01-18T13:55:01.110Z,95570.31
2023-01-18T13:57:28.927Z,95568.19
2023-01-18T13:59:55.508Z,95575.22
2023-01-18T14:02:22.319Z,95576.06
2023-01-18T14:05:25.385Z,95574.22
2023-01-18T14:07:55.006Z,95571.53
2023-01-18T14:10:25.685Z,95574.66
2023-01-18T14:12:53.533Z,95575.97
2023-01-18T14:15:29.058Z,95578.03
2023-01-18T14:17:58.774Z,95580.03
2023-01-18T14:20:40.171Z,95579.47
2023-01-18T14:23:06.970Z,95587.72
2023-01-18T14:25:45.672Z,95591.06
2023-01-18T14:28:17.818Z,95591.94
2023-01-18T14:30:46.319Z,95590.44
2023-01-18T14:33:12.930Z,95597.25
2023-01-18T14:35:48.664Z,95607.28
2023-01-18T14:38:18.138Z,95612.78
2023-01-18T14:40:51.283Z,95615.78
2023-01-18T14:43:29.670Z,95612.59
2023-01-18T14:46:02.383Z,95615.72
2023-01-18T14:48:30.808Z,95610.78
2023-01-18T14:50:59.248Z,95618.75
2023-01-18T14:53:31.508Z,95626.44
2023-01-18T14:56:24.497Z,95621.78
2023-01-18T14:58:57.071Z,95629.28
2023-01-18T15:01:34.594Z,95629.13
2023-01-18T15:04:02.042Z,95625.06
2023-01-18T15:06:34.872Z,95632.25
2023-01-18T15:09:02.049Z,95635.25
2023-01-18T15:11:28.653Z,95641.47
2023-01-18T15:13:56.270Z,95633.78
2023-01-18T15:16:25.166Z,95635.59
2023-01-18T15:18:52.985Z,95628.59
2023-01-18T15:21:23.939Z,95637.28
2023-01-18T15:23:52.661Z,95643.47
2023-01-18T15:26:32.933Z,95637.44
2023-01-18T15:29:05.380Z,95631.47
2023-01-18T15:31:31.877Z,95630.47
2023-01-18T15:33:58.578Z,95636.44
2023-01-18T15:36:25.090Z,95630.44
2023-01-18T15:38:51.858Z,95631.09
2023-01-18T15:41:18.398Z,95627.25
2023-01-18T15:43:46.178Z,95634.47
2023-01-18T15:46:14.445Z,95631.94
2023-01-18T15:48:47.078Z,95634.44
2023-01-18T15:51:13.645Z,95644.13
2023-01-18T15:53:46.030Z,95642.47
2023-01-18T15:56:17.509Z,95641.13
2023-01-18T15:58:50.293Z,95635.81
2023-01-18T16:01:21.437Z,95632.09
2023-01-18T16:03:48.065Z,95632.78
2023-01-18T16:06:16.900Z,95618.91
2023-01-18T16:09:00.140Z,95633.63
2023-01-18T16:11:26.605Z,95641.94
2023-01-18T16:14:00.791Z,95646.28
2023-01-18T16:16:28.730Z,95644.13
2023-01-18T16:19:04.785Z,95661.81
2023-01-18T16:21:43.047Z,95678.16
2023-01-18T16:24:24.757Z,95697.31
2023-01-18T16:26:51.932Z,95699.66
2023-01-18T16:29:18.560Z,95712.28
2023-01-18T16:31:45.445Z,95706.13
2023-01-18T16:34:22.937Z,95700.31
2023-01-18T16:36:50.027Z,95686.81
2023-01-18T16:39:16.522Z,95696.50
2023-01-18T16:41:46.224Z,95696.16
2023-01-18T16:44:12.688Z,95699.16
2023-01-18T16:46:39.267Z,95703.81
2023-01-18T16:49:09.805Z,95711.50
2023-01-18T16:51:36.340Z,95707.19
2023-01-18T16:54:02.804Z,95719.16
2023-01-18T16:56:29.352Z,95722.50
2023-01-18T16:58:55.815Z,95720.19
2023-01-18T17:01:22.467Z,95728.19
2023-01-18T17:03:50.853Z,95726.69
2023-01-18T17:06:18.989Z,95730.00
2023-01-18T17:08:45.938Z,95742.00
2023-01-18T17:11:12.622Z,95746.88
2023-01-18T17:13:39.551Z,95737.38
2023-01-18T17:16:06.189Z,95747.53
2023-01-18T17:18:32.695Z,95743.69
2023-01-18T17:20:59.262Z,95755.06
2023-01-18T17:23:25.766Z,95751.88
2023-01-18T17:25:52.288Z,95754.22
2023-01-18T17:28:19.384Z,95754.53
2023-01-18T17:30:47.381Z,95752.72
2023-01-18T17:33:18.299Z,95749.88
2023-01-18T17:35:45.293Z,95744.19
2023-01-18T17:38:22.547Z,95744.38
2023-01-18T17:40:49.476Z,95739.84
2023-01-18T17:43:28.493Z,95751.03
2023-01-18T17:46:02.284Z,95755.88
2023-01-18T17:48:29.063Z,95759.53
2023-01-18T17:50:55.503Z,95770.19
2023-01-18T17:53:21.971Z,95787.03
2023-01-18T17:55:48.432Z,95784.88
2023-01-18T17:58:14.947Z,95791.22
2023-01-18T18:00:41.486Z,95785.03
2023-01-18T18:03:08.977Z,95790.88
2023-01-18T18:05:35.785Z,95792.19
2023-01-18T18:08:02.314Z,95792.53
2023-01-18T18:10:28.807Z,95800.50
2023-01-18T18:12:55.324Z,95802.19
2023-01-18T18:15:23.389Z,95811.47
2023-01-18T18:17:49.939Z,95799.09
2023-01-18T18:20:16.716Z,95797.81
2023-01-18T18:22:43.244Z,95787.09
2023-01-18T18:25:09.840Z,95784.44
2023-01-18T18:27:45.212Z,95791.78
2023-01-18T18:30:12.878Z,95781.13
2023-01-18T18:32:39.447Z,95782.16
2023-01-18T18:35:14.833Z,95795.47
2023-01-18T18:37:49.956Z,95788.84
2023-01-18T18:40:16.649Z,95784.50
2023-01-18T18:42:45.263Z,95782.00
2023-01-18T18:45:16.355Z,95789.81
2023-01-18T18:47:42.842Z,95782.47
2023-01-18T18:50:09.709Z,95790.94
2023-01-18T18:52:36.417Z,95791.53
2023-01-18T18:55:03.289Z,95792.69
2023-01-18T18:57:29.916Z,95794.03
2023-01-18T18:59:56.357Z,95790.22
2023-01-18T19:02:23.598Z,95780.47
2023-01-18T19:04:50.114Z,95782.50
2023-01-18T19:07:17.299Z,95780.50
2023-01-18T19:09:43.787Z,95779.81
2023-01-18T19:12:12.029Z,95780.09
2023-01-18T19:14:38.502Z,95781.13
2023-01-18T19:17:05.232Z,95781.06
2023-01-18T19:19:31.718Z,95786.72
2023-01-18T19:21:58.232Z,95789.72
2023-01-18T19:24:25.926Z,95793.63
2023-01-18T19:26:52.360Z,95786.72
2023-01-18T19:29:18.940Z,95793.44
2023-01-18T19:31:45.518Z,95788.75
2023-01-18T19:34:12.850Z,95791.72
2023-01-18T19:36:39.291Z,95808.25
2023-01-18T19:39:09.236Z,95801.97
2023-01-18T19:41:41.453Z,95787.06
2023-01-18T19:44:07.968Z,95796.75
2023-01-18T19:46:35.534Z,95807.41
2023-01-18T19:49:03.249Z,95806.38
2023-01-18T19:51:30.155Z,95805.72
2023-01-18T19:53:57.904Z,95812.53
2023-01-18T19:56:25.630Z,95804.38
2023-01-18T19:58:52.227Z,95802.06
2023-01-18T20:01:34.653Z,95806.75
2023-01-18T20:04:02.126Z,95797.13
2023-01-18T20:06:28.603Z,95796.47
2023-01-18T20:08:55.071Z,95798.16
2023-01-18T20:11:21.534Z,95794.44
2023-01-18T20:13:49.039Z,95795.63
2023-01-18T20:16:16.111Z,95804.47
2023-01-18T20:18:42.656Z,95807.44
2023-01-18T20:21:11.423Z,95800.44
2023-01-18T20:23:38.231Z,95791.13
2023-01-18T20:26:05.481Z,95792.81
2023-01-18T20:28:32.465Z,95800.78
2023-01-18T20:31:00.590Z,95797.31
2023-01-18T20:33:27.058Z,95806.31
2023-01-18T20:35:53.531Z,95807.97
2023-01-18T20:38:20.037Z,95817.16
2023-01-18T20:40:46.909Z,95813.97
2023-01-18T20:43:13.418Z,95820.81
2023-01-18T20:45:39.991Z,95824.13
2023-01-18T20:48:06.867Z,95825.28
2023-01-18T20:50:33.388Z,95822.09
2023-01-18T20:53:00.186Z,95822.09
2023-01-18T20:55:26.922Z,95818.06
2023-01-18T20:57:55.235Z,95821.78
2023-01-18T21:00:22.369Z,95822.59
2023-01-18T21:02:49.268Z,95824.81
2023-01-18T21:05:15.815Z,95826.59
2023-01-18T21:07:42.329Z,95830.44
2023-01-18T21:10:09.766Z,95834.44
2023-01-18T21:12:36.294Z,95834.94
2023-01-18T21:15:06.428Z,95844.88
2023-01-18T21:17:33.093Z,95847.34
2023-01-18T21:19:59.491Z,95843.19
2023-01-18T21:22:25.955Z,95845.81
2023-01-18T21:24:52.419Z,95852.81
2023-01-18T21:27:19.022Z,95854.50
2023-01-18T21:29:45.494Z,95858.66
2023-01-18T21:32:11.947Z,95858.34
2023-01-18T21:34:38.450Z,95861.50
2023-01-18T21:37:04.946Z,95870.16
2023-01-18T21:39:31.413Z,95876.13
2023-01-18T21:42:16.665Z,95879.22
2023-01-18T21:45:01.919Z,95874.00
2023-01-18T21:47:28.452Z,95879.72
2023-01-18T21:50:18.125Z,95880.38
2023-01-18T21:53:03.641Z,95875.41
2023-01-18T21:55:30.422Z,95881.31
2023-01-18T21:58:15.641Z,95887.38
2023-01-18T22:00:42.400Z,95883.78
2023-01-18T22:03:09.857Z,95887.97
2023-01-18T22:05:36.347Z,95890.16
2023-01-18T22:08:03.018Z,95897.59
2023-01-18T22:10:29.779Z,95892.13
2023-01-18T22:12:56.594Z,95897.47
2023-01-18T22:15:23.244Z,95899.34
2023-01-18T22:17:49.727Z,95902.53
2023-01-18T22:20:16.571Z,95905.81
2023-01-18T22:22:43.032Z,95902.25
2023-01-18T22:25:09.690Z,95910.41
2023-01-18T22:27:36.150Z,95925.84
2023-01-18T22:30:02.693Z,95928.97
2023-01-18T22:32:29.134Z,95933.47
2023-01-18T22:34:55.659Z,95934.28
2023-01-18T22:37:23.425Z,95933.47
2023-01-18T22:39:50.491Z,95938.47
2023-01-18T22:42:17.000Z,95935.00
2023-01-18T22:44:43.475Z,95944.38
2023-01-18T22:47:10.595Z,95949.91
2023-01-18T22:49:37.073Z,95959.50
2023-01-18T22:52:04.278Z,95958.78
2023-01-18T22:54:30.751Z,95951.78
2023-01-18T22:56:57.216Z,95943.50
2023-01-18T22:59:23.714Z,95953.88
2023-01-18T23:01:50.191Z,95944.41
2023-01-18T23:04:16.639Z,95949.25
2023-01-18T23:06:47.696Z,95952.75
2023-01-18T23:09:15.786Z,95959.78
2023-01-18T23:11:42.279Z,95974.09
2023-01-18T23:14:27.421Z,95971.72
2023-01-18T23:17:32.475Z,95965.09
2023-01-18T23:19:59.231Z,95959.59
2023-01-18T23:22:25.736Z,95972.75
2023-01-18T23:24:52.214Z,95971.78
2023-01-18T23:27:18.694Z,95968.97
2023-01-18T23:29:55.390Z,95964.69
2023-01-18T23:32:27.148Z,95970.72
2023-01-18T23:34:54.611Z,95966.59
2023-01-18T23:37:21.124Z,95966.22
2023-01-18T23:40:06.045Z,95963.69
2023-01-18T23:42:50.898Z,95967.00
2023-01-18T23:45:36.263Z,95955.31
2023-01-18T23:48:25.590Z,95961.22
2023-01-18T23:51:10.777Z,95954.47
2023-01-18T23:53:56.095Z,95960.97
2023-01-18T23:56:22.773Z,95966.72
2023-01-18T23:58:49.279Z,95963.06
